Time;durP1;ratioP1;P1;durP2;ratioP2;P2;SDS_P1;SDS_P2;PMS_P1;PMS_P2;Temp;Humidity;BMP_temperature;BMP_pressure;BME280_temperature;BME280_humidity;BME280_pressure;Samples;Min_cycle;Max_cycle;Signal;HPM_P1;HPM_P2
2021/03/15 00:01:38;;;;;;;;;;;;;;;;;;4976769;28;19906;-65
2021/03/15 00:04:04;;;;;;;;;;;;;;;;;;4976287;28;20013;-64
2021/03/15 00:06:30;;;;;;;;;;;18.20;95.00;;;;;;5008099;28;19945;-66
2021/03/15 00:08:56;;;;;;;;;;;;;;;;;;4976847;28;19907;-66
2021/03/15 00:11:22;;;;;;;;;;;;;;;;;;4975249;28;19906;-66
2021/03/15 00:13:47;;;;;;;;;;;18.10;94.80;;;;;;4976968;28;20340;-68
2021/03/15 00:16:13;;;;;;;;;;;;;;;;;;4991534;28;19906;-67
2021/03/15 00:18:39;;;;;;;;;;;;;;;;;;4989507;28;19928;-67
2021/03/15 00:21:05;;;;;;;;;;;;;;;;;;4987978;28;20395;-67
2021/03/15 00:23:31;;;;;;;;;;;18.00;95.20;;;;;;4967228;28;19981;-67
2021/03/15 00:25:56;;;;;;;;;;;;;;;;;;5008418;28;19905;-67
2021/03/15 00:28:22;;;;;;;;;;;;;;;;;;4994851;28;19914;-67
2021/03/15 00:30:48;;;;;;;;;;;18.00;94.90;;;;;;4988281;28;19918;-67
2021/03/15 00:33:14;;;;;;;;;;;;;;;;;;4939892;29;20243;-67
2021/03/15 00:35:39;;;;;;;;;;;17.90;95.00;;;;;;4957342;28;19918;-67
2021/03/15 00:38:05;;;;;;;;;;;17.90;95.30;;;;;;4957887;28;19910;-67
2021/03/15 00:40:31;;;;;;;;;;;17.90;95.00;;;;;;4974653;28;20271;-67
2021/03/15 00:42:56;;;;;;;;;;;17.90;95.10;;;;;;4975527;28;19925;-67
2021/03/15 00:45:22;;;;;;;;;;;17.80;95.10;;;;;;4975464;28;20026;-67
2021/03/15 00:47:48;;;;;;;;;;;17.80;95.30;;;;;;4992928;28;19953;-67
2021/03/15 00:50:14;;;;;;;;;;;;;;;;;;4956155;29;19977;-67
2021/03/15 00:52:40;;;;;;;;;;;;;;;;;;4957057;28;19961;-67
2021/03/15 00:55:05;;;;;;;;;;;17.70;95.40;;;;;;4988276;28;19906;-67
2021/03/15 00:57:31;;;;;;;;;;;17.80;95.20;;;;;;4956041;29;19917;-67
2021/03/15 00:59:57;;;;;;;;;;;17.80;95.40;;;;;;4955993;29;19916;-67
2021/03/15 01:02:22;;;;;;;;;;;17.80;95.30;;;;;;4956810;29;19910;-67
2021/03/15 01:04:48;;;;;;;;;;;17.80;95.10;;;;;;4956832;29;20247;-67
2021/03/15 01:07:13;;;;;;;;;;;;;;;;;;4955984;29;19914;-67
2021/03/15 01:09:39;;;;;;;;;;;17.80;95.20;;;;;;5002383;28;19906;-67
2021/03/15 01:12:05;;;;;;;;;;;;;;;;;;4976122;28;19917;-67
2021/03/15 01:14:31;;;;;;;;;;;17.80;94.90;;;;;;4975987;28;19906;-67
2021/03/15 01:16:56;;;;;;;;;;;17.70;95.00;;;;;;4976029;28;19997;-67
2021/03/15 01:19:22;;;;;;;;;;;17.80;95.00;;;;;;4975972;28;19906;-68
2021/03/15 01:21:48;;;;;;;;;;;;;;;;;;5007581;28;19906;-67
2021/03/15 01:24:14;;;;;;;;;;;;;;;;;;4975678;28;20025;-68
2021/03/15 01:26:39;;;;;;;;;;;17.70;95.00;;;;;;4975930;28;19964;-70
2021/03/15 01:29:05;;;;;;;;;;;17.70;94.80;;;;;;5007482;28;19906;-68
2021/03/15 01:31:30;;;;;;;;;;;17.80;95.00;;;;;;4974952;28;20323;-68
2021/03/15 01:33:56;;;;;;;;;;;17.80;94.00;;;;;;5007720;28;19910;-67
2021/03/15 01:36:21;;;;;;;;;;;17.80;94.60;;;;;;4975806;28;19914;-68
2021/03/15 01:38:47;;;;;;;;;;;17.70;94.90;;;;;;5007253;28;19906;-68
2021/03/15 01:41:12;;;;;;;;;;;17.70;94.70;;;;;;4975793;28;19964;-68
2021/03/15 01:43:38;;;;;;;;;;;17.70;95.10;;;;;;4975715;28;20012;-68
2021/03/15 01:46:04;;;;;;;;;;;;;;;;;;5011111;28;19910;-67
2021/03/15 01:48:30;;;;;;;;;;;;;;;;;;4979635;28;19965;-67
2021/03/15 01:50:55;;;;;;;;;;;17.70;95.00;;;;;;4979614;28;19914;-67
2021/03/15 01:53:21;;;;;;;;;;;17.70;95.00;;;;;;4979529;28;19929;-67
2021/03/15 01:55:46;;;;;;;;;;;17.70;95.00;;;;;;5011232;28;19907;-67
2021/03/15 01:58:13;;;;;;;;;;;17.70;95.10;;;;;;4994689;28;20010;-67
2021/03/15 02:00:39;;;;;;;;;;;;;;;;;;5010871;28;20259;-66
2021/03/15 02:03:05;;;;;;;;;;;;;;;;;;4978536;28;19918;-66
2021/03/15 02:05:31;;;;;;;;;;;17.70;94.90;;;;;;4978663;28;20086;-67
2021/03/15 02:07:57;;;;;;;;;;;;;;;;;;4979201;28;19941;-67
2021/03/15 02:10:22;;;;;;;;;;;17.70;94.80;;;;;;4979268;28;19956;-66
2021/03/15 02:12:50;;;;;;;;;;;17.70;95.10;;;;;;4979296;28;19910;-65
2021/03/15 02:15:20;;;;;;;;;;;17.70;94.80;;;;;;4979195;28;19906;-65
2021/03/15 02:18:01;;;;;;;;;;;17.60;94.90;;;;;;4978337;28;19906;-65
2021/03/15 02:20:27;;;;;;;;;;;;;;;;;;4979113;28;19906;-65
2021/03/15 02:22:53;;;;;;;;;;;;;;;;;;4978133;28;19929;-65
2021/03/15 02:25:19;;;;;;;;;;;;;;;;;;4978482;28;19945;-65
2021/03/15 02:27:48;;;;;;;;;;;17.70;95.00;;;;;;4990974;28;20328;-65
2021/03/15 02:30:14;;;;;;;;;;;;;;;;;;4959546;28;19917;-65
2021/03/15 02:33:12;;;;;;;;;;;17.70;95.20;;;;;;4973222;28;19969;-65
2021/03/15 02:35:37;;;;;;;;;;;17.70;95.60;;;;;;4956939;28;20008;-65
2021/03/15 02:38:04;;;;;;;;;;;17.60;95.70;;;;;;5010073;28;20358;-65
2021/03/15 02:40:30;;;;;;;;;;;;;;;;;;4977820;28;19910;-65
2021/03/15 02:42:56;;;;;;;;;;;;;;;;;;4978651;28;20270;-65
2021/03/15 02:45:21;;;;;;;;;;;17.60;95.00;;;;;;4977675;28;19906;-65
2021/03/15 02:47:47;;;;;;;;;;;17.60;95.40;;;;;;4977796;28;19906;-66
2021/03/15 02:50:13;;;;;;;;;;;17.60;95.30;;;;;;4977618;28;19906;-65
2021/03/15 02:52:39;;;;;;;;;;;17.60;94.80;;;;;;4978484;28;19949;-65
2021/03/15 02:55:05;;;;;;;;;;;17.60;95.80;;;;;;4977011;28;19945;-66
2021/03/15 02:57:30;;;;;;;;;;;17.60;95.00;;;;;;4977581;28;20354;-67
2021/03/15 02:59:56;;;;;;;;;;;17.60;95.10;;;;;;4977592;28;19951;-67
2021/03/15 03:02:22;;;;;;;;;;;17.60;95.40;;;;;;4977184;28;19937;-67
2021/03/15 03:04:48;;;;;;;;;;;17.60;95.40;;;;;;4977522;28;20339;-67
2021/03/15 03:07:14;;;;;;;;;;;;;;;;;;4977368;28;19913;-67
2021/03/15 03:09:39;;;;;;;;;;;17.50;95.40;;;;;;4978058;28;19916;-67
2021/03/15 03:12:05;;;;;;;;;;;;;;;;;;4977220;28;19937;-67
2021/03/15 03:14:31;;;;;;;;;;;17.50;95.10;;;;;;4978339;28;20349;-67
2021/03/15 03:16:57;;;;;;;;;;;17.50;95.40;;;;;;4977226;28;20279;-67
2021/03/15 03:19:22;;;;;;;;;;;17.50;95.50;;;;;;4977190;28;19906;-67
2021/03/15 03:21:48;;;;;;;;;;;17.40;95.60;;;;;;4977124;28;19921;-66
2021/03/15 03:24:14;;;;;;;;;;;;;;;;;;4976736;28;19922;-67
2021/03/15 03:26:39;;;;;;;;;;;17.40;95.50;;;;;;4977910;28;20247;-67
2021/03/15 03:29:06;;;;;;;;;;;17.40;95.20;;;;;;4977003;28;20351;-67
2021/03/15 03:31:32;;;;;;;;;;;17.40;95.60;;;;;;4977788;28;20347;-66
2021/03/15 03:33:58;;;;;;;;;;;;;;;;;;4977107;28;19914;-67
2021/03/15 03:36:24;;;;;;;;;;;;;;;;;;4977776;28;19976;-66
2021/03/15 03:38:50;;;;;;;;;;;17.40;95.60;;;;;;4977478;28;19906;-66
2021/03/15 03:41:15;;;;;;;;;;;17.40;95.50;;;;;;4977631;28;19976;-66
2021/03/15 03:43:41;;;;;;;;;;;17.40;96.00;;;;;;4977238;28;19954;-66
2021/03/15 03:46:06;;;;;;;;;;;17.40;95.50;;;;;;4992833;28;19906;-66
2021/03/15 03:48:33;;;;;;;;;;;17.50;95.80;;;;;;4976619;28;19924;-66
2021/03/15 03:50:59;;;;;;;;;;;17.40;94.80;;;;;;4992853;28;19905;-66
2021/03/15 03:53:25;;;;;;;;;;;17.40;95.60;;;;;;4977294;28;19917;-66
2021/03/15 03:55:56;;;;;;;;;;;17.40;95.90;;;;;;4992285;28;20304;-66
2021/03/15 03:58:22;;;;;;;;;;;;;;;;;;4991915;28;19910;-65
2021/03/15 04:00:48;;;;;;;;;;;;;;;;;;4976761;28;19917;-66
2021/03/15 04:03:14;;;;;;;;;;;17.50;94.90;;;;;;4974266;28;19913;-66
2021/03/15 04:05:41;;;;;;;;;;;17.40;94.80;;;;;;4992347;28;20357;-66
2021/03/15 04:08:08;;;;;;;;;;;17.40;95.00;;;;;;4991257;28;19906;-66
2021/03/15 04:10:34;;;;;;;;;;;;;;;;;;4976210;28;20041;-67
2021/03/15 04:13:20;;;;;;;;;;;17.40;95.80;;;;;;4976480;28;20338;-67
2021/03/15 04:15:46;;;;;;;;;;;;;;;;;;4975457;28;20000;-66
2021/03/15 04:18:11;;;;;;;;;;;;;;;;;;4976286;28;20420;-66
2021/03/15 04:20:37;;;;;;;;;;;;;;;;;;4975643;28;19910;-67
2021/03/15 04:23:03;;;;;;;;;;;;;;;;;;4975363;28;19926;-66
2021/03/15 04:25:31;;;;;;;;;;;;;;;;;;4976239;28;19949;-67
2021/03/15 04:27:56;;;;;;;;;;;17.40;94.60;;;;;;5007696;28;20001;-67
2021/03/15 04:30:22;;;;;;;;;;;17.40;95.20;;;;;;4996415;28;20001;-66
2021/03/15 04:32:52;;;;;;;;;;;;;;;;;;4956981;29;19910;-66
2021/03/15 04:35:18;;;;;;;;;;;;;;;;;;4956647;28;19910;-67
2021/03/15 04:37:44;;;;;;;;;;;;;;;;;;4963606;28;19973;-67
2021/03/15 04:40:10;;;;;;;;;;;17.30;95.50;;;;;;4976281;28;19906;-66
2021/03/15 04:42:35;;;;;;;;;;;17.20;95.70;;;;;;4975607;28;20283;-67
2021/03/15 04:45:01;;;;;;;;;;;17.30;96.10;;;;;;4975661;28;20359;-67
2021/03/15 04:47:27;;;;;;;;;;;17.30;95.90;;;;;;4976521;28;19906;-67
2021/03/15 04:49:52;;;;;;;;;;;17.30;95.90;;;;;;4976372;28;20005;-67
2021/03/15 04:52:18;;;;;;;;;;;17.20;96.00;;;;;;4975423;28;19910;-67
2021/03/15 04:54:44;;;;;;;;;;;;;;;;;;4976235;28;20339;-67
2021/03/15 04:57:10;;;;;;;;;;;17.30;96.00;;;;;;4976584;28;19906;-67
2021/03/15 04:59:35;;;;;;;;;;;17.30;95.70;;;;;;4959290;28;19917;-67
2021/03/15 05:02:01;;;;;;;;;;;;;;;;;;4975227;28;20335;-67
2021/03/15 05:04:27;;;;;;;;;;;17.20;95.40;;;;;;4976155;28;19977;-66
2021/03/15 05:06:52;;;;;;;;;;;17.20;95.70;;;;;;4959131;28;19909;-67
2021/03/15 05:09:18;;;;;;;;;;;17.20;96.30;;;;;;4986487;28;20347;-67
2021/03/15 05:11:43;;;;;;;;;;;17.20;96.10;;;;;;5011134;28;19941;-67
2021/03/15 05:14:09;;;;;;;;;;;17.10;96.30;;;;;;5011028;28;19906;-67
2021/03/15 05:16:35;;;;;;;;;;;17.20;96.20;;;;;;5010921;28;19906;-67
2021/03/15 05:19:01;;;;;;;;;;;;;;;;;;5027043;28;19996;-67
2021/03/15 05:21:27;;;;;;;;;;;17.10;96.00;;;;;;4995496;28;20357;-67
2021/03/15 05:23:55;;;;;;;;;;;17.10;96.20;;;;;;5010539;28;19922;-67
2021/03/15 05:26:21;;;;;;;;;;;17.20;96.10;;;;;;5027135;28;19909;-66
2021/03/15 05:28:46;;;;;;;;;;;17.30;96.10;;;;;;5027223;28;19906;-66
2021/03/15 05:31:12;;;;;;;;;;;17.10;94.20;;;;;;5010780;28;19906;-66
2021/03/15 05:33:38;;;;;;;;;;;17.10;95.50;;;;;;5010952;28;19910;-66
2021/03/15 05:36:03;;;;;;;;;;;;;;;;;;5010681;28;19910;-66
2021/03/15 05:38:29;;;;;;;;;;;17.10;95.30;;;;;;5004829;28;20004;-70
2021/03/15 05:40:55;;;;;;;;;;;17.20;96.00;;;;;;4975028;28;19960;-67
2021/03/15 05:43:28;;;;;;;;;;;17.10;95.90;;;;;;4974170;28;19925;-67
2021/03/15 05:45:54;;;;;;;;;;;;;;;;;;4974746;28;19921;-67
2021/03/15 05:48:19;;;;;;;;;;;;;;;;;;4974184;28;19910;-67
2021/03/15 05:50:45;;;;;;;;;;;;;;;;;;4974580;28;19933;-68
2021/03/15 05:53:29;;;;;;;;;;;17.20;95.50;;;;;;4974895;28;20235;-64
2021/03/15 05:56:00;;;;;;;;;;;17.00;95.90;;;;;;5007321;28;19918;-66
2021/03/15 05:58:26;;;;;;;;;;;;;;;;;;4973935;28;19910;-69
2021/03/15 06:00:58;;;;;;;;;;;17.20;96.10;;;;;;4995770;28;20008;-66
2021/03/15 06:03:42;;;;;;;;;;;17.20;96.50;;;;;;4987614;28;20335;-66
2021/03/15 06:06:08;;;;;;;;;;;;;;;;;;4987630;28;19911;-66
2021/03/15 06:08:39;;;;;;;;;;;17.10;96.50;;;;;;4961510;28;19916;-66
2021/03/15 06:11:09;;;;;;;;;;;17.10;95.70;;;;;;4958653;28;19989;-65
2021/03/15 06:13:35;;;;;;;;;;;17.20;96.00;;;;;;4974647;28;19914;-66
2021/03/15 06:16:01;;;;;;;;;;;17.10;94.70;;;;;;4975540;28;19933;-67
2021/03/15 06:18:27;;;;;;;;;;;17.10;96.30;;;;;;4974531;28;19906;-66
2021/03/15 06:20:52;;;;;;;;;;;17.00;95.80;;;;;;4975465;28;20323;-65
2021/03/15 06:23:19;;;;;;;;;;;17.10;96.20;;;;;;4974997;28;20394;-65
2021/03/15 06:25:47;;;;;;;;;;;17.10;95.90;;;;;;4975471;28;20294;-65
2021/03/15 06:28:14;;;;;;;;;;;17.00;96.10;;;;;;4974343;28;19920;-68
2021/03/15 06:30:41;;;;;;;;;;;17.20;95.80;;;;;;4976610;28;19917;-63
2021/03/15 06:33:08;;;;;;;;;;;17.20;95.70;;;;;;4977864;28;19918;-63
2021/03/15 06:35:42;;;;;;;;;;;17.30;95.10;;;;;;4978320;28;20232;-63
2021/03/15 06:38:09;;;;;;;;;;;17.30;95.10;;;;;;4976997;28;19910;-63
2021/03/15 06:40:36;;;;;;;;;;;;;;;;;;4976550;28;19989;-63
2021/03/15 06:43:03;;;;;;;;;;;17.20;96.20;;;;;;4977702;28;20290;-63
2021/03/15 06:45:29;;;;;;;;;;;;;;;;;;4976706;28;19910;-63
2021/03/15 06:47:55;;;;;;;;;;;;;;;;;;4976870;28;20350;-63
2021/03/15 06:50:21;;;;;;;;;;;17.30;95.00;;;;;;4978091;28;20350;-63
2021/03/15 06:52:47;;;;;;;;;;;;;;;;;;4978097;28;19932;-63
2021/03/15 06:55:13;;;;;;;;;;;;;;;;;;4977908;28;20027;-63
2021/03/15 06:57:38;;;;;;;;;;;17.30;93.90;;;;;;4978079;28;19997;-63
2021/03/15 07:00:04;;;;;;;;;;;;;;;;;;4977119;28;20004;-63
2021/03/15 07:02:30;;;;;;;;;;;;;;;;;;4977199;28;19917;-63
2021/03/15 07:05:06;;;;;;;;;;;17.20;94.50;;;;;;4977415;28;19921;-63
2021/03/15 07:07:31;;;;;;;;;;;17.10;95.60;;;;;;4976201;28;19910;-63
2021/03/15 07:09:57;;;;;;;;;;;;;;;;;;4977443;28;20022;-63
2021/03/15 07:12:24;;;;;;;;;;;17.20;95.80;;;;;;4976844;28;20314;-63
2021/03/15 07:14:50;;;;;;;;;;;17.20;95.70;;;;;;4976200;28;19910;-63
2021/03/15 07:17:25;;;;;;;;;;;17.10;96.00;;;;;;4977280;28;19917;-62
2021/03/15 07:19:51;;;;;;;;;;;;;;;;;;4977599;28;19910;-63
2021/03/15 07:22:17;;;;;;;;;;;;;;;;;;4974288;28;20053;-63
2021/03/15 07:24:43;;;;;;;;;;;;;;;;;;4975755;28;20307;-63
2021/03/15 07:27:09;;;;;;;;;;;;;;;;;;4976396;28;19910;-63
2021/03/15 07:29:35;;;;;;;;;;;17.10;94.00;;;;;;4976663;28;20340;-63
2021/03/15 07:32:01;;;;;;;;;;;;;;;;;;4977220;28;19961;-63
2021/03/15 07:34:26;;;;;;;;;;;17.10;94.50;;;;;;4975827;28;19953;-63
2021/03/15 07:36:52;;;;;;;;;;;;;;;;;;4977708;28;19906;-63
2021/03/15 07:39:18;;;;;;;;;;;;;;;;;;4976467;28;19979;-63
2021/03/15 07:41:45;;;;;;;;;;;;;;;;;;4976333;28;19925;-63
2021/03/15 07:44:21;;;;;;;;;;;17.10;93.50;;;;;;4975998;28;19949;-63
2021/03/15 07:46:47;;;;;;;;;;;17.10;94.10;;;;;;4974646;28;19914;-63
2021/03/15 07:49:19;;;;;;;;;;;17.10;93.20;;;;;;4976613;28;19936;-63
2021/03/15 07:51:45;;;;;;;;;;;17.10;93.20;;;;;;4977117;28;20408;-63
2021/03/15 07:54:11;;;;;;;;;;;;;;;;;;4995546;28;19914;-63
2021/03/15 07:56:36;;;;;;;;;;;17.30;93.00;;;;;;4961546;28;19910;-63
2021/03/15 07:59:02;;;;;;;;;;;17.00;92.10;;;;;;4975264;28;19907;-63
2021/03/15 08:01:28;;;;;;;;;;;;;;;;;;4976099;28;19917;-63
2021/03/15 08:03:54;;;;;;;;;;;;;;;;;;4975848;28;20107;-63
2021/03/15 08:06:21;;;;;;;;;;;;;;;;;;4976468;28;19913;-63
2021/03/15 08:08:46;;;;;;;;;;;17.00;92.40;;;;;;4976119;28;20009;-63
2021/03/15 08:11:12;;;;;;;;;;;;;;;;;;4975626;28;20001;-63
2021/03/15 08:13:38;;;;;;;;;;;;;;;;;;4972787;28;20349;-63
2021/03/15 08:16:04;;;;;;;;;;;;;;;;;;4976533;28;19949;-63
2021/03/15 08:18:30;;;;;;;;;;;;;;;;;;4976160;28;19949;-63
2021/03/15 08:21:00;;;;;;;;;;;17.00;91.50;;;;;;4976342;28;19910;-63
2021/03/15 08:23:25;;;;;;;;;;;17.00;92.50;;;;;;4999784;28;20251;-63
2021/03/15 08:25:52;;;;;;;;;;;17.00;92.70;;;;;;4958290;28;19907;-63
2021/03/15 08:28:18;;;;;;;;;;;;;;;;;;5008078;28;19928;-63
2021/03/15 08:30:46;;;;;;;;;;;16.90;93.00;;;;;;4975980;28;20326;-63
2021/03/15 08:33:12;;;;;;;;;;;17.10;92.40;;;;;;5008105;28;19906;-63
2021/03/15 08:35:38;;;;;;;;;;;;;;;;;;5007931;28;19913;-64
2021/03/15 08:38:04;;;;;;;;;;;;;;;;;;4976176;28;19906;-63
2021/03/15 08:40:45;;;;;;;;;;;17.10;93.00;;;;;;4976506;28;20263;-64
2021/03/15 08:43:17;;;;;;;;;;;16.90;93.10;;;;;;4976031;28;19914;-64
2021/03/15 08:45:43;;;;;;;;;;;;;;;;;;4976410;28;20220;-64
2021/03/15 08:48:08;;;;;;;;;;;17.00;92.80;;;;;;4975773;28;19913;-64
2021/03/15 08:50:34;;;;;;;;;;;;;;;;;;4976585;28;19918;-64
2021/03/15 08:53:00;;;;;;;;;;;16.90;92.80;;;;;;4975102;28;19914;-64
2021/03/15 08:55:47;;;;;;;;;;;17.00;92.80;;;;;;4975203;28;19910;-64
2021/03/15 08:58:30;;;;;;;;;;;16.90;92.40;;;;;;4975870;28;19906;-64
2021/03/15 09:00:56;;;;;;;;;;;;;;;;;;4975751;28;19910;-64
2021/03/15 09:03:58;;;;;;;;;;;16.90;91.90;;;;;;4976281;28;19972;-64
2021/03/15 09:06:39;;;;;;;;;;;16.90;92.60;;;;;;4935849;29;19921;-64
2021/03/15 09:09:05;;;;;;;;;;;;;;;;;;4935527;29;19911;-64
2021/03/15 09:11:36;;;;;;;;;;;16.90;90.80;;;;;;4935652;29;20518;-64
2021/03/15 09:14:02;;;;;;;;;;;;;;;;;;4935228;29;20248;-64
2021/03/15 09:16:28;;;;;;;;;;;;;;;;;;4935770;29;19906;-64
2021/03/15 09:18:55;;;;;;;;;;;17.00;92.30;;;;;;4935733;29;19907;-64
2021/03/15 09:21:21;;;;;;;;;;;;;;;;;;4935747;29;19911;-64
2021/03/15 09:23:46;;;;;;;;;;;17.00;91.90;;;;;;4935283;29;19929;-64
2021/03/15 09:26:32;;;;;;;;;;;17.00;92.00;;;;;;4935061;29;20471;-64
2021/03/15 09:28:58;;;;;;;;;;;;;;;;;;4935245;29;19998;-64
2021/03/15 09:31:24;;;;;;;;;;;;;;;;;;4935838;29;20392;-62
2021/03/15 09:33:50;;;;;;;;;;;17.00;92.40;;;;;;4935502;29;19938;-62
2021/03/15 09:36:25;;;;;;;;;;;17.00;92.50;;;;;;4935484;29;19906;-62
2021/03/15 09:38:50;;;;;;;;;;;17.00;91.70;;;;;;4935458;29;19975;-62
2021/03/15 09:41:19;;;;;;;;;;;17.00;91.90;;;;;;4984659;28;19906;-61
2021/03/15 09:43:44;;;;;;;;;;;;;;;;;;4975179;28;19918;-62
2021/03/15 09:46:13;;;;;;;;;;;16.90;92.50;;;;;;4975579;28;19956;-62
2021/03/15 09:48:40;;;;;;;;;;;;;;;;;;4975603;28;20319;-62
2021/03/15 09:51:06;;;;;;;;;;;17.00;92.70;;;;;;4976028;28;19909;-62
2021/03/15 09:53:32;;;;;;;;;;;;;;;;;;4975803;28;19916;-62
2021/03/15 09:56:04;;;;;;;;;;;17.00;92.70;;;;;;4975491;28;20383;-62
2021/03/15 09:58:29;;;;;;;;;;;17.00;92.40;;;;;;4975606;28;19993;-62
2021/03/15 10:00:55;;;;;;;;;;;16.90;92.60;;;;;;4975637;28;19989;-61
2021/03/15 10:03:21;;;;;;;;;;;;;;;;;;4975315;28;19909;-61
2021/03/15 10:05:47;;;;;;;;;;;;;;;;;;4976899;28;20333;-61
2021/03/15 10:08:13;;;;;;;;;;;;;;;;;;4978909;28;20377;-61
2021/03/15 10:10:38;;;;;;;;;;;16.90;92.50;;;;;;4979258;28;19910;-61
2021/03/15 10:13:12;;;;;;;;;;;16.90;92.60;;;;;;4978923;28;19910;-61
2021/03/15 10:15:38;;;;;;;;;;;;;;;;;;4979178;28;20033;-62
2021/03/15 10:18:04;;;;;;;;;;;;;;;;;;4978740;28;19906;-62
2021/03/15 10:20:30;;;;;;;;;;;17.00;92.40;;;;;;4979224;28;19910;-61
2021/03/15 10:22:56;;;;;;;;;;;17.00;92.50;;;;;;4978614;28;19922;-61
2021/03/15 10:25:21;;;;;;;;;;;17.00;92.10;;;;;;4978981;28;20327;-62
2021/03/15 10:27:57;;;;;;;;;;;17.00;92.40;;;;;;4979074;28;20349;-61
2021/03/15 10:30:23;;;;;;;;;;;;;;;;;;4978705;28;19910;-62
2021/03/15 10:32:48;;;;;;;;;;;17.00;92.50;;;;;;4978989;28;19921;-62
2021/03/15 10:35:14;;;;;;;;;;;;;;;;;;4978640;28;19910;-62
2021/03/15 10:37:40;;;;;;;;;;;17.10;92.70;;;;;;4978598;28;19999;-61
2021/03/15 10:40:06;;;;;;;;;;;;;;;;;;4978191;28;19958;-62
2021/03/15 10:42:32;;;;;;;;;;;17.00;92.70;;;;;;4978448;28;19916;-62
2021/03/15 10:44:58;;;;;;;;;;;17.00;92.40;;;;;;4977618;28;19910;-62
2021/03/15 10:47:27;;;;;;;;;;;17.00;92.40;;;;;;4978493;28;19999;-62
2021/03/15 10:49:53;;;;;;;;;;;;;;;;;;4978515;28;20009;-62
2021/03/15 10:52:26;;;;;;;;;;;16.90;92.40;;;;;;4978512;28;19953;-62
2021/03/15 10:54:51;;;;;;;;;;;17.00;92.40;;;;;;4978324;28;19906;-62
2021/03/15 10:57:17;;;;;;;;;;;16.70;92.40;;;;;;4978327;28;19906;-62
2021/03/15 10:59:43;;;;;;;;;;;17.10;91.60;;;;;;4978078;28;19906;-62
2021/03/15 11:02:08;;;;;;;;;;;17.00;92.20;;;;;;4978166;28;20027;-62
2021/03/15 11:04:34;;;;;;;;;;;;;;;;;;4978112;28;19914;-62
2021/03/15 11:07:00;;;;;;;;;;;17.00;92.10;;;;;;4978106;28;20262;-62
2021/03/15 11:09:25;;;;;;;;;;;17.00;92.10;;;;;;4977837;28;19968;-62
2021/03/15 11:11:54;;;;;;;;;;;16.90;91.50;;;;;;4976916;28;19906;-62
2021/03/15 11:14:20;;;;;;;;;;;;;;;;;;4977918;28;19976;-62
2021/03/15 11:16:46;;;;;;;;;;;17.00;92.10;;;;;;4977731;28;20335;-62
2021/03/15 11:19:12;;;;;;;;;;;;;;;;;;4977913;28;19921;-62
2021/03/15 11:21:44;;;;;;;;;;;17.00;91.50;;;;;;4977857;28;19921;-62
2021/03/15 11:24:10;;;;;;;;;;;17.00;92.10;;;;;;4977545;28;19917;-62
2021/03/15 11:26:42;;;;;;;;;;;17.00;92.00;;;;;;4978081;28;19906;-62
2021/03/15 11:29:07;;;;;;;;;;;17.00;91.80;;;;;;4977699;28;19906;-62
2021/03/15 11:31:33;;;;;;;;;;;17.10;91.90;;;;;;4977812;28;19917;-62
2021/03/15 11:34:00;;;;;;;;;;;17.00;91.80;;;;;;4977628;28;19920;-62
2021/03/15 11:36:26;;;;;;;;;;;17.10;92.00;;;;;;4977659;28;19917;-62
2021/03/15 11:38:58;;;;;;;;;;;17.00;91.50;;;;;;4977592;28;19917;-62
2021/03/15 11:41:26;;;;;;;;;;;17.00;92.10;;;;;;4977625;28;20374;-62
2021/03/15 11:43:52;;;;;;;;;;;17.10;92.00;;;;;;4975941;28;19921;-62
2021/03/15 11:46:18;;;;;;;;;;;;;;;;;;5008995;28;19910;-62
2021/03/15 11:48:44;;;;;;;;;;;17.00;91.90;;;;;;4977588;28;19906;-62
2021/03/15 11:51:10;;;;;;;;;;;17.10;91.90;;;;;;4977367;28;20365;-62
2021/03/15 11:53:36;;;;;;;;;;;;;;;;;;4977398;28;19968;-62
2021/03/15 11:56:02;;;;;;;;;;;;;;;;;;4977303;28;19906;-63
2021/03/15 11:58:28;;;;;;;;;;;;;;;;;;4977155;28;19917;-62
2021/03/15 12:00:53;;;;;;;;;;;17.10;91.50;;;;;;4977239;28;19906;-62
2021/03/15 12:03:19;;;;;;;;;;;;;;;;;;4977065;28;19910;-62
2021/03/15 12:05:45;;;;;;;;;;;17.00;92.20;;;;;;4977030;28;19953;-62
2021/03/15 12:08:11;;;;;;;;;;;17.10;92.10;;;;;;4978995;28;20009;-62
2021/03/15 12:10:36;;;;;;;;;;;17.10;92.10;;;;;;4996758;28;19917;-62
2021/03/15 12:13:02;;;;;;;;;;;17.00;92.10;;;;;;4995941;28;20304;-62
2021/03/15 12:15:28;;;;;;;;;;;;;;;;;;4995615;28;19917;-62
2021/03/15 12:17:54;;;;;;;;;;;;;;;;;;4996151;28;20238;-62
2021/03/15 12:20:20;;;;;;;;;;;17.10;92.10;;;;;;4982072;28;20267;-62
2021/03/15 12:22:48;;;;;;;;;;;17.10;92.10;;;;;;4976569;28;20338;-62
2021/03/15 12:25:13;;;;;;;;;;;17.10;92.30;;;;;;4976806;28;19906;-62
2021/03/15 12:27:39;;;;;;;;;;;;;;;;;;4976090;28;20000;-62
2021/03/15 12:30:05;;;;;;;;;;;;;;;;;;4976515;28;20339;-62
2021/03/15 12:32:31;;;;;;;;;;;;;;;;;;4976787;28;20283;-62
2021/03/15 12:34:57;;;;;;;;;;;17.10;92.20;;;;;;4976697;28;19906;-62
2021/03/15 12:37:22;;;;;;;;;;;17.10;92.30;;;;;;4976366;28;19972;-62
2021/03/15 12:39:48;;;;;;;;;;;17.00;92.30;;;;;;4976125;28;20228;-62
2021/03/15 12:42:17;;;;;;;;;;;17.10;91.60;;;;;;4976011;28;19906;-62
2021/03/15 12:44:43;;;;;;;;;;;;;;;;;;4976314;28;19910;-62
2021/03/15 12:47:09;;;;;;;;;;;17.10;92.20;;;;;;4976205;28;19972;-62
2021/03/15 12:49:35;;;;;;;;;;;;;;;;;;4976605;28;19965;-62
2021/03/15 12:52:00;;;;;;;;;;;17.10;92.20;;;;;;4976200;28;19918;-62
2021/03/15 12:54:26;;;;;;;;;;;;;;;;;;4975725;28;20064;-62
2021/03/15 12:56:52;;;;;;;;;;;;;;;;;;4976222;28;19917;-62
2021/03/15 12:59:18;;;;;;;;;;;17.00;91.80;;;;;;4976213;28;19910;-62
2021/03/15 13:01:43;;;;;;;;;;;17.10;91.70;;;;;;4975979;28;20245;-62
2021/03/15 13:04:09;;;;;;;;;;;17.00;91.90;;;;;;4976200;28;19921;-62
2021/03/15 13:06:35;;;;;;;;;;;;;;;;;;4976108;28;20080;-62
2021/03/15 13:09:01;;;;;;;;;;;17.00;91.90;;;;;;4976003;28;19906;-62
2021/03/15 13:11:27;;;;;;;;;;;;;;;;;;4975797;28;19916;-62
2021/03/15 13:13:52;;;;;;;;;;;17.00;91.80;;;;;;4975891;28;19960;-62
2021/03/15 13:16:18;;;;;;;;;;;;;;;;;;4975875;28;19917;-62
2021/03/15 13:18:44;;;;;;;;;;;17.00;92.10;;;;;;4975969;28;19906;-62
2021/03/15 13:21:10;;;;;;;;;;;17.10;91.70;;;;;;4976105;28;19964;-62
2021/03/15 13:23:35;;;;;;;;;;;17.00;92.10;;;;;;4975636;28;19932;-62
2021/03/15 13:26:01;;;;;;;;;;;17.00;92.10;;;;;;4975813;28;19906;-62
2021/03/15 13:28:26;;;;;;;;;;;17.00;92.00;;;;;;4975780;28;19917;-62
2021/03/15 13:30:52;;;;;;;;;;;17.10;91.70;;;;;;4975820;28;19906;-62
2021/03/15 13:33:17;;;;;;;;;;;17.00;91.70;;;;;;4976002;28;19910;-62
2021/03/15 13:35:43;;;;;;;;;;;17.00;91.80;;;;;;4975723;28;19906;-62
2021/03/15 13:38:09;;;;;;;;;;;17.00;91.90;;;;;;4975335;28;19974;-68
2021/03/15 13:40:35;;;;;;;;;;;;;;;;;;4978713;28;20001;-59
2021/03/15 13:43:00;;;;;;;;;;;17.00;91.60;;;;;;4979540;28;19913;-57
2021/03/15 13:45:26;;;;;;;;;;;17.00;92.20;;;;;;4979727;28;20385;-62
2021/03/15 13:47:52;;;;;;;;;;;;;;;;;;4979526;28;19917;-63
2021/03/15 13:50:18;;;;;;;;;;;17.00;92.30;;;;;;4979782;28;19910;-62
2021/03/15 13:52:43;;;;;;;;;;;17.00;92.70;;;;;;4979556;28;19921;-63
2021/03/15 13:55:09;;;;;;;;;;;17.10;92.80;;;;;;4979448;28;19920;-61
2021/03/15 13:57:35;;;;;;;;;;;;;;;;;;4979334;28;19965;-63
2021/03/15 14:00:01;;;;;;;;;;;16.90;93.20;;;;;;4979329;28;19906;-62
2021/03/15 14:02:27;;;;;;;;;;;;;;;;;;4979249;28;19906;-63
2021/03/15 14:04:52;;;;;;;;;;;17.10;93.70;;;;;;4979300;28;19921;-60
2021/03/15 14:07:18;;;;;;;;;;;;;;;;;;4979179;28;19909;-62
2021/03/15 14:09:45;;;;;;;;;;;17.20;93.30;;;;;;4979006;28;19977;-65
2021/03/15 14:12:11;;;;;;;;;;;17.10;94.00;;;;;;4978873;28;20247;-63
2021/03/15 14:14:36;;;;;;;;;;;17.20;93.60;;;;;;4978459;28;19906;-59
2021/03/15 14:17:02;;;;;;;;;;;17.10;93.70;;;;;;4979144;28;19913;-59
2021/03/15 14:19:28;;;;;;;;;;;17.10;94.00;;;;;;4978422;28;19916;-59
2021/03/15 14:21:54;;;;;;;;;;;17.10;93.30;;;;;;4979116;28;19922;-58
2021/03/15 14:24:21;;;;;;;;;;;17.10;93.50;;;;;;4978646;28;20005;-59
2021/03/15 14:26:46;;;;;;;;;;;17.10;93.30;;;;;;4978823;28;19906;-59
2021/03/15 14:29:12;;;;;;;;;;;17.10;92.90;;;;;;4978795;28;20045;-59
2021/03/15 14:31:38;;;;;;;;;;;;;;;;;;4978921;28;19969;-59
2021/03/15 14:34:04;;;;;;;;;;;17.00;92.90;;;;;;4978667;28;19945;-59
2021/03/15 14:36:29;;;;;;;;;;;17.10;92.90;;;;;;4978887;28;19969;-59
2021/03/15 14:38:55;;;;;;;;;;;;;;;;;;4978093;28;20335;-59
2021/03/15 14:41:21;;;;;;;;;;;17.10;92.30;;;;;;4978305;28;19906;-59
2021/03/15 14:43:47;;;;;;;;;;;;;;;;;;4978455;28;19910;-59
2021/03/15 14:46:13;;;;;;;;;;;;;;;;;;4978417;28;19906;-59
2021/03/15 14:48:39;;;;;;;;;;;17.10;92.00;;;;;;4978831;28;19937;-59
2021/03/15 14:51:04;;;;;;;;;;;17.00;92.00;;;;;;4978263;28;20351;-59
2021/03/15 14:53:30;;;;;;;;;;;17.00;92.50;;;;;;4978482;28;19910;-61
2021/03/15 14:55:56;;;;;;;;;;;;;;;;;;4978097;28;19906;-57
2021/03/15 14:58:22;;;;;;;;;;;17.00;92.10;;;;;;4978306;28;19917;-58
2021/03/15 15:00:47;;;;;;;;;;;17.00;92.80;;;;;;4978397;28;19906;-59